Time;durP1;ratioP1;P1;durP2;ratioP2;P2;SDS_P1;SDS_P2;PMS_P1;PMS_P2;Temp;Humidity;BMP_temperature;BMP_pressure;BME280_temperature;BME280_humidity;BME280_pressure;Samples;Min_cycle;Max_cycle;Signal;HPM_P1;HPM_P2
2022/05/13 00:00:03;;;;;;;18.90;5.60;;;;;;;18.86;100.00;98109.53;4979508;28;20026;-55
2022/05/13 00:02:28;;;;;;;21.70;6.30;;;;;;;18.71;100.00;98113.25;4979356;28;20042;-54
2022/05/13 00:04:53;;;;;;;17.80;5.78;;;;;;;19.13;100.00;98114.56;4979632;28;20022;-54
2022/05/13 00:07:19;;;;;;;15.35;5.30;;;;;;;18.81;100.00;98109.00;4979729;28;20042;-53
2022/05/13 00:09:56;;;;;;;15.18;5.00;;;;;;;18.91;100.00;98111.81;4979877;28;20033;-53
2022/05/13 00:12:24;;;;;;;18.02;5.80;;;;;;;19.03;100.00;98109.13;4979994;28;20073;-54
2022/05/13 00:14:51;;;;;;;17.08;5.57;;;;;;;19.09;100.00;98109.63;4980054;28;20034;-54
2022/05/13 00:17:17;;;;;;;17.63;5.50;;;;;;;19.01;100.00;98108.38;4979678;28;20089;-53
2022/05/13 00:19:43;;;;;;;15.68;5.38;;;;;;;18.84;100.00;98116.72;4979362;28;20057;-53
2022/05/13 00:22:08;;;;;;;21.08;6.05;;;;;;;19.03;100.00;98109.13;4979093;28;20080;-54
2022/05/13 00:24:34;;;;;;;13.65;5.22;;;;;;;18.97;100.00;98104.28;4980395;28;20038;-54
2022/05/13 00:26:59;;;;;;;18.40;5.90;;;;;;;18.81;100.00;98109.84;4979114;28;20078;-54
2022/05/13 00:29:25;;;;;;;24.55;6.07;;;;;;;18.89;100.00;98104.00;4979554;28;20036;-53
2022/05/13 00:31:50;;;;;;;15.57;5.43;;;;;;;18.77;100.00;98107.53;4979666;28;20049;-53
2022/05/13 00:34:15;;;;;;;20.13;6.28;;;;;;;18.90;100.00;98110.97;4979515;28;20026;-53
2022/05/13 00:36:41;;;;;;;14.52;5.30;;;;;;;18.78;100.00;98111.84;4979005;28;20097;-54
2022/05/13 00:39:07;;;;;;;16.83;5.80;;;;;;;18.76;100.00;98109.31;4980499;28;20034;-57
2022/05/13 00:41:34;;;;;;;16.08;5.78;;;;;;;19.00;100.00;98108.50;4979038;28;20027;-55
2022/05/13 00:43:59;;;;;;;14.05;5.25;;;;;;;18.74;100.00;98108.56;4980068;28;20389;-53
2022/05/13 00:46:28;;;;;;;23.88;6.20;;;;;;;18.60;100.00;98117.50;4979201;28;20049;-54
2022/05/13 00:48:54;;;;;;;16.45;6.07;;;;;;;18.39;100.00;98117.25;4979681;28;20125;-53
2022/05/13 00:51:27;;;;;;;15.35;6.22;;;;;;;18.13;100.00;98119.09;4978855;28;20060;-53
2022/05/13 00:53:55;;;;;;;15.80;5.93;;;;;;;18.20;100.00;98112.41;4979549;28;20065;-53
2022/05/13 00:56:22;;;;;;;17.40;6.15;;;;;;;18.49;100.00;98112.16;4978296;28;20109;-53
2022/05/13 00:58:51;;;;;;;18.58;6.78;;;;;;;18.26;100.00;98114.63;4979225;28;20044;-55
2022/05/13 01:01:16;;;;;;;20.13;6.85;;;;;;;18.40;100.00;98116.28;4978009;28;20042;-55
2022/05/13 01:03:42;;;;;;;17.02;6.32;;;;;;;18.56;100.00;98121.31;4979082;28;20026;-54
2022/05/13 01:06:13;;;;;;;22.90;7.03;;;;;;;18.36;100.00;98124.53;4978247;28;20030;-54
2022/05/13 01:08:39;;;;;;;21.27;6.90;;;;;;;18.11;100.00;98121.00;4978821;28;20476;-54
2022/05/13 01:11:10;;;;;;;16.98;6.15;;;;;;;18.20;100.00;98128.25;4977473;28;20116;-54
2022/05/13 01:13:37;;;;;;;17.80;6.25;;;;;;;18.38;100.00;98127.91;4978604;28;20034;-54
2022/05/13 01:16:03;;;;;;;18.15;7.25;;;;;;;18.38;100.00;98127.91;4976996;28;20038;-54
2022/05/13 01:18:36;;;;;;;17.88;6.55;;;;;;;18.21;100.00;98131.75;4978509;28;20034;-54
2022/05/13 01:21:04;;;;;;;17.85;6.53;;;;;;;18.21;100.00;98127.28;4978101;28;20049;-54
2022/05/13 01:23:32;;;;;;;20.67;7.15;;;;;;;18.24;100.00;98129.72;4979351;28;20222;-54
2022/05/13 01:26:05;;;;;;;16.55;7.00;;;;;;;18.41;100.00;98132.97;4978113;28;20200;-54
2022/05/13 01:28:32;;;;;;;18.65;6.47;;;;;;;18.75;100.00;98125.25;4978302;28;20026;-57
2022/05/13 01:31:01;;;;;;;18.67;7.60;;;;;;;18.55;100.00;98119.63;4993166;28;20540;-55
2022/05/13 01:33:27;;;;;;;20.35;7.72;;;;;;;18.42;100.00;98117.03;4978218;28;20088;-54
2022/05/13 01:35:55;;;;;;;21.75;7.65;;;;;;;18.38;100.00;98109.41;4978211;28;20097;-54
2022/05/13 01:38:27;;;;;;;19.20;7.47;;;;;;;18.38;100.00;98122.63;4977703;28;20037;-54
2022/05/13 01:40:52;;;;;;;16.75;6.80;;;;;;;18.29;100.00;98117.06;4977957;28;20044;-55
2022/05/13 01:43:18;;;;;;;21.38;7.40;;;;;;;18.42;100.00;98124.13;4978431;28;20056;-55
2022/05/13 01:45:43;;;;;;;18.67;6.78;;;;;;;18.40;100.00;98121.56;4978543;28;20030;-57
2022/05/13 01:48:09;;;;;;;19.27;7.45;;;;;;;18.44;100.00;98106.34;4978576;28;20032;-54
2022/05/13 01:50:36;;;;;;;20.35;7.00;;;;;;;18.14;100.00;98115.50;4977149;28;20046;-55
2022/05/13 01:53:01;;;;;;;21.67;7.28;;;;;;;18.19;100.00;98109.88;4977974;28;20030;-54
2022/05/13 01:55:27;;;;;;;20.50;6.60;;;;;;;18.27;100.00;98111.03;4977693;28;20072;-55
2022/05/13 01:57:52;;;;;;;22.80;7.43;;;;;;;18.34;100.00;98116.72;4978133;28;20117;-54
2022/05/13 02:00:19;;;;;;;18.80;7.30;;;;;;;18.20;100.00;98120.34;4978479;28;20531;-55
2022/05/13 02:05:29;;;;;;;28.42;7.30;;;;;;;18.25;100.00;98110.31;4977882;28;20053;-54
2022/05/13 02:07:55;;;;;;;17.73;6.95;;;;;;;18.16;100.00;98113.59;4977068;28;20026;-55
2022/05/13 02:10:20;;;;;;;17.35;7.20;;;;;;;18.58;100.00;98114.16;4977268;28;20034;-55
2022/05/13 02:12:46;;;;;;;17.75;6.72;;;;;;;18.26;100.00;98109.34;4978246;28;20037;-54
2022/05/13 02:15:12;;;;;;;19.63;7.32;;;;;;;18.38;100.00;98104.13;4977839;28;20035;-54
2022/05/13 02:17:37;;;;;;;14.85;6.60;;;;;;;18.09;100.00;98102.63;4978309;28;20049;-54
2022/05/13 02:20:08;;;;;;;19.95;7.82;;;;;;;18.14;100.00;98104.94;4977194;28;20052;-53
2022/05/13 02:22:33;;;;;;;17.55;7.10;;;;;;;18.14;100.00;98104.09;4977691;28;20062;-54
2022/05/13 02:24:59;;;;;;;22.02;8.23;;;;;;;18.41;100.00;98106.56;4979579;28;20393;-54
2022/05/13 02:27:25;;;;;;;19.48;8.77;;;;;;;18.18;100.00;98102.91;4981443;28;20074;-54
2022/05/13 02:29:50;;;;;;;22.63;9.80;;;;;;;18.20;100.00;98109.78;4981650;28;20030;-54
2022/05/13 02:32:15;;;;;;;24.00;9.68;;;;;;;18.04;100.00;98115.28;4981504;28;20671;-54
2022/05/13 02:34:41;;;;;;;21.40;8.48;;;;;;;18.27;100.00;98111.03;4981672;28;20618;-55
2022/05/13 02:37:06;;;;;;;25.83;9.27;;;;;;;18.07;100.00;98109.81;4979622;28;20058;-54
2022/05/13 02:39:31;;;;;;;25.52;9.30;;;;;;;18.05;100.00;98116.16;4981568;28;20080;-54
2022/05/13 02:41:57;;;;;;;20.58;8.77;;;;;;;18.09;100.00;98113.16;4981384;28;20042;-55
2022/05/13 02:44:23;;;;;;;22.48;8.20;;;;;;;18.19;100.00;98110.72;4981582;28;20904;-54
2022/05/13 02:46:48;;;;;;;19.92;7.72;;;;;;;17.98;100.00;98109.59;4980396;28;20034;-54
2022/05/13 02:49:14;;;;;;;18.13;7.50;;;;;;;17.85;100.00;98105.16;4981809;28;20116;-54
2022/05/13 02:51:40;;;;;;;17.15;7.22;;;;;;;17.92;100.00;98102.97;4980042;28;20274;-54
2022/05/13 02:54:07;;;;;;;18.80;7.13;;;;;;;18.30;100.00;98105.53;4980781;28;20030;-54
2022/05/13 02:56:33;;;;;;;18.80;7.65;;;;;;;18.03;100.00;98102.19;4980229;28;20766;-55
2022/05/13 02:58:58;;;;;;;18.38;7.05;;;;;;;18.04;100.00;98103.88;4981554;28;20022;-54
2022/05/13 03:01:24;;;;;;;20.00;7.25;;;;;;;18.25;100.00;98097.09;4980672;28;20038;-55
2022/05/13 03:03:50;;;;;;;17.17;7.10;;;;;;;18.10;100.00;98109.59;4981107;28;20023;-54
2022/05/13 03:06:16;;;;;;;17.27;7.28;;;;;;;18.26;100.00;98101.41;4980321;28;20125;-54
2022/05/13 03:08:41;;;;;;;18.75;7.10;;;;;;;18.27;100.00;98100.47;4980630;28;20503;-54
2022/05/13 03:11:08;;;;;;;15.43;6.85;;;;;;;18.12;100.00;98098.91;4980713;28;20042;-55
2022/05/13 03:13:33;;;;;;;18.95;6.93;;;;;;;18.24;100.00;98099.84;4980524;28;20027;-56
2022/05/13 03:16:08;;;;;;;15.30;7.10;;;;;;;18.04;100.00;98093.34;4979949;28;20806;-55
2022/05/13 03:18:34;;;;;;;18.33;6.93;;;;;;;18.34;100.00;98098.22;4980197;28;20027;-57
2022/05/13 03:20:59;;;;;;;14.55;6.40;;;;;;;18.29;100.00;98098.56;4980128;28;20093;-57
2022/05/13 03:23:25;;;;;;;18.10;7.35;;;;;;;18.29;100.00;98101.22;4981137;28;20026;-56
2022/05/13 03:25:50;;;;;;;22.83;8.18;;;;;;;18.14;100.00;98099.66;4995010;28;20408;-55
2022/05/13 03:28:15;;;;;;;23.55;7.75;;;;;;;18.22;100.00;98097.31;4981520;28;20029;-56
2022/05/13 03:30:41;;;;;;;21.13;7.40;;;;;;;18.24;100.00;98094.56;4981032;28;20037;-56
2022/05/13 03:33:06;;;;;;;23.67;7.22;;;;;;;18.23;100.00;98095.50;4980820;28;20022;-61
2022/05/13 03:35:32;;;;;;;15.98;6.65;;;;;;;18.12;100.00;98090.97;4979400;28;20589;-55
2022/05/13 03:37:57;;;;;;;16.92;6.38;;;;;;;18.33;100.00;98087.81;4979620;28;20208;-55
2022/05/13 03:40:23;;;;;;;15.65;6.78;;;;;;;18.26;100.00;98088.22;4979725;28;20046;-55
2022/05/13 03:42:49;;;;;;;17.67;6.95;;;;;;;18.15;100.00;98089.94;4980202;28;20113;-54
2022/05/13 03:45:16;;;;;;;17.33;7.00;;;;;;;18.08;100.00;98089.53;4979327;28;20092;-54
2022/05/13 03:47:44;;;;;;;20.60;7.70;;;;;;;18.37;100.00;98089.25;4980911;28;20057;-56
2022/05/13 03:50:10;;;;;;;20.67;8.43;;;;;;;18.23;100.00;98088.47;4979775;28;20041;-54
2022/05/13 03:52:35;;;;;;;18.48;8.13;;;;;;;18.28;100.00;98091.59;4980846;28;20392;-53
2022/05/13 03:55:00;;;;;;;20.13;8.00;;;;;;;18.15;100.00;98085.50;4980127;28;20022;-55
2022/05/13 03:57:26;;;;;;;17.85;8.25;;;;;;;18.29;100.00;98090.66;4979925;28;20050;-53
2022/05/13 03:59:51;;;;;;;20.35;6.70;;;;;;;18.14;100.00;98099.66;4980798;28;20026;-53
2022/05/13 04:02:16;;;;;;;19.27;7.93;;;;;;;18.30;100.00;98100.25;4979829;28;20615;-54
2022/05/13 04:10:11;;;;;;;20.00;7.30;;;;;;;18.29;100.00;98095.94;4978101;28;20099;-53
2022/05/13 04:18:05;;;;;;;16.35;6.88;;;;;;;18.16;100.00;98103.03;4979438;28;20045;-54
2022/05/13 04:20:32;;;;;;;17.70;6.43;;;;;;;18.25;100.00;98101.53;4979480;28;20038;-54
2022/05/13 04:22:58;;;;;;;15.05;6.32;;;;;;;18.43;100.00;98109.94;4979604;28;20038;-53
2022/05/13 04:25:23;;;;;;;18.65;6.95;;;;;;;18.10;100.00;98100.81;4978204;28;20031;-54
2022/05/13 04:27:48;;;;;;;18.60;7.00;;;;;;;18.10;100.00;98108.72;4979142;28;20788;-53
2022/05/13 04:30:14;;;;;;;15.80;6.47;;;;;;;18.29;100.00;98111.78;4979083;28;20069;-55
2022/05/13 04:32:39;;;;;;;16.83;6.93;;;;;;;18.05;100.00;98105.59;4980272;28;20041;-53
2022/05/13 04:35:05;;;;;;;17.65;7.10;;;;;;;18.17;100.00;98115.28;4979691;28;20026;-53
2022/05/13 04:37:31;;;;;;;14.38;6.60;;;;;;;18.28;100.00;98112.72;4979051;28;20504;-53
2022/05/13 04:39:56;;;;;;;16.25;7.35;;;;;;;18.39;100.00;98116.41;4980046;28;20018;-53
2022/05/13 04:45:07;;;;;;;17.13;6.95;;;;;;;18.30;100.00;98117.88;4979915;28;20053;-54
2022/05/13 04:50:16;;;;;;;14.50;6.93;;;;;;;18.74;100.00;98134.16;4979114;28;20049;-54
2022/05/13 04:52:41;;;;;;;17.92;7.22;;;;;;;18.59;100.00;98125.53;4979642;28;20026;-56
2022/05/13 04:55:08;;;;;;;16.70;7.30;;;;;;;18.38;100.00;98127.91;4978827;28;20034;-53
2022/05/13 04:57:33;;;;;;;18.35;7.32;;;;;;;18.24;100.00;98127.09;4983211;28;20092;-55
2022/05/13 04:59:58;;;;;;;18.02;7.03;;;;;;;18.28;100.00;98133.84;4979263;28;20684;-54
2022/05/13 05:02:24;;;;;;;18.95;7.80;;;;;;;18.32;100.00;98134.47;4978195;28;20189;-56
2022/05/13 05:04:49;;;;;;;13.88;6.47;;;;;;;18.27;100.00;98147.16;4978427;28;20408;-54
2022/05/13 05:07:14;;;;;;;17.60;7.10;;;;;;;18.44;100.00;98149.44;4978766;28;20120;-55
2022/05/13 05:09:40;;;;;;;15.30;6.88;;;;;;;18.42;100.00;98156.63;4978633;28;21085;-54
2022/05/13 05:12:07;;;;;;;14.95;6.07;;;;;;;18.55;100.00;98150.50;4978016;28;20034;-54
2022/05/13 05:14:33;;;;;;;16.05;6.43;;;;;;;18.57;100.00;98157.34;4979146;28;20144;-54
2022/05/13 05:16:58;;;;;;;15.20;6.90;;;;;;;18.12;100.00;98154.34;4977675;28;20125;-53
2022/05/13 05:19:24;;;;;;;17.92;7.38;;;;;;;18.46;100.00;98152.81;4977106;28;20168;-54
2022/05/13 05:21:49;;;;;;;15.45;6.65;;;;;;;18.74;100.00;98152.66;4977676;28;20562;-54
2022/05/13 05:24:14;;;;;;;17.85;6.80;;;;;;;18.79;100.00;98156.66;4977518;28;20030;-54
2022/05/13 05:26:39;;;;;;;19.90;7.30;;;;;;;18.78;100.00;98152.31;4975303;28;20038;-52
2022/05/13 05:29:05;;;;;;;18.58;7.05;;;;;;;18.49;100.00;98146.50;4976628;28;20030;-54
2022/05/13 05:31:30;;;;;;;12.30;6.15;;;;;;;18.68;100.00;98157.41;4976782;28;20095;-54
2022/05/13 05:33:55;;;;;;;14.43;6.50;;;;;;;18.64;100.00;98161.25;4978163;28;20084;-53
2022/05/13 05:36:21;;;;;;;15.55;6.38;;;;;;;18.99;100.00;98149.97;4977617;28;20045;-53
2022/05/13 05:38:46;;;;;;;16.25;6.55;;;;;;;19.07;100.00;98158.16;4977257;28;20022;-54
2022/05/13 05:41:12;;;;;;;17.85;7.07;;;;;;;19.06;100.00;98153.00;4975296;28;20069;-53
2022/05/13 05:43:37;;;;;;;13.80;6.10;;;;;;;18.93;100.00;98154.84;4977116;28;20045;-54
2022/05/13 05:46:03;;;;;;;16.27;6.35;;;;;;;19.40;100.00;98151.31;4977697;28;20084;-56
2022/05/13 05:48:28;;;;;;;14.73;6.30;;;;;;;19.20;100.00;98162.53;4978318;28;20038;-54
2022/05/13 05:50:55;;;;;;;13.30;6.10;;;;;;;19.50;100.00;98151.50;4978290;28;20042;-53
2022/05/13 05:58:52;;;;;;;12.75;5.68;;;;;;;20.22;100.00;98153.94;4977331;28;20037;-53
2022/05/13 06:01:18;;;;;;;14.70;5.85;;;;;;;20.19;100.00;98151.50;4980294;28;20046;-54
2022/05/13 06:03:44;;;;;;;13.75;6.28;;;;;;;20.52;100.00;98149.81;4981354;28;20141;-53
2022/05/13 06:06:12;;;;;;;17.15;6.28;;;;;;;20.97;100.00;98157.75;4979362;28;20121;-54
2022/05/13 06:08:38;;;;;;;15.63;6.07;;;;;;;21.06;100.00;98157.94;4981963;28;20824;-54
2022/05/13 06:11:04;;;;;;;11.63;5.60;;;;;;;20.30;100.00;98163.09;4981763;28;20038;-54
2022/05/13 06:13:29;;;;;;;17.73;5.60;;;;;;;20.37;100.00;98159.00;4982411;28;20223;-54
2022/05/13 06:15:55;;;;;;;16.33;5.25;;;;;;;20.20;100.00;98166.47;4981551;28;20420;-54
2022/05/13 06:18:20;;;;;;;15.40;5.18;;;;;;;20.11;100.00;98171.63;4981472;28;20319;-54
2022/05/13 06:20:45;;;;;;;17.70;5.55;;;;;;;20.05;100.00;98175.56;4981311;28;20034;-54
2022/05/13 06:23:11;;;;;;;14.60;5.70;;;;;;;20.52;100.00;98168.38;4981615;28;20456;-54
2022/05/13 06:25:38;;;;;;;15.45;5.43;;;;;;;20.44;100.00;98165.50;4981522;28;20124;-56
2022/05/13 06:28:04;;;;;;;12.55;5.40;;;;;;;20.67;100.00;98165.50;4981854;28;20033;-53
2022/05/13 06:30:32;;;;;;;12.90;5.40;;;;;;;20.78;100.00;98163.66;4981127;28;20034;-54
2022/05/13 06:32:58;;;;;;;12.80;5.35;;;;;;;20.75;100.00;98157.78;4980713;28;20026;-55
2022/05/13 06:35:26;;;;;;;12.73;4.72;;;;;;;21.04;100.00;98162.53;4980962;28;20035;-54
2022/05/13 06:37:52;;;;;;;14.95;5.13;;;;;;;21.22;100.00;98165.50;4981592;28;20036;-59
2022/05/13 06:40:18;;;;;;;14.80;5.35;;;;;;;20.97;100.00;98162.19;4981137;28;20030;-54
2022/05/13 06:42:44;;;;;;;12.02;4.80;;;;;;;21.12;100.00;98163.59;4981693;28;20630;-54
2022/05/13 06:45:09;;;;;;;10.63;4.18;;;;;;;21.27;100.00;98163.31;4981307;28;20022;-55
2022/05/13 06:47:36;;;;;;;15.40;4.97;;;;;;;22.46;100.00;98167.47;4981082;28;20109;-55
2022/05/13 06:50:05;;;;;;;15.55;4.85;;;;;;;23.13;100.00;98166.00;4981145;28;20209;-54
2022/05/13 06:52:30;;;;;;;13.05;4.88;;;;;;;23.04;100.00;98157.03;4981563;28;20052;-55
2022/05/13 06:54:55;;;;;;;9.63;4.15;;;;;;;22.61;100.00;98155.50;4981132;28;20026;-54
2022/05/13 06:57:21;;;;;;;12.90;3.88;;;;;;;23.51;100.00;98151.03;4980715;28;20034;-55
2022/05/13 06:59:46;;;;;;;12.38;4.80;;;;;;;23.78;100.00;98154.78;4981265;28;20087;-55
2022/05/13 07:02:11;;;;;;;11.73;4.20;;;;;;;22.76;100.00;98157.78;4981063;28;20064;-55
2022/05/13 07:04:37;;;;;;;9.25;3.95;;;;;;;23.97;94.95;98160.09;4980757;28;20030;-54
2022/05/13 07:07:02;;;;;;;10.70;3.95;;;;;;;24.78;85.91;98164.84;4981208;28;20834;-56
2022/05/13 07:09:28;;;;;;;8.30;3.70;;;;;;;24.62;87.23;98170.00;4981182;28;20033;-55
2022/05/13 07:11:54;;;;;;;10.35;3.70;;;;;;;24.52;81.69;98154.06;4979847;28;20050;-55
2022/05/13 07:14:20;;;;;;;9.95;3.58;;;;;;;25.52;72.01;98146.94;4981743;28;20526;-57
2022/05/13 07:16:45;;;;;;;11.82;4.05;;;;;;;25.44;73.07;98160.22;4980623;28;20035;-56
2022/05/13 07:19:11;;;;;;;9.85;3.50;;;;;;;25.24;68.39;98162.22;4980758;28;20087;-55
2022/05/13 07:21:36;;;;;;;9.80;3.22;;;;;;;25.54;64.03;98162.81;4979910;28;20077;-56
2022/05/13 07:24:01;;;;;;;10.77;3.50;;;;;;;26.19;65.92;98165.13;4981118;28;20121;-55
2022/05/13 07:26:27;;;;;;;9.15;3.25;;;;;;;24.72;69.10;98170.81;4980799;28;20041;-55
2022/05/13 07:28:52;;;;;;;9.05;3.40;;;;;;;24.04;75.43;98169.19;4980919;28;20032;-54
2022/05/13 07:31:18;;;;;;;12.45;3.47;;;;;;;23.95;72.52;98175.38;4978486;28;20586;-55
2022/05/13 07:33:43;;;;;;;10.50;3.42;;;;;;;23.51;77.10;98169.66;4980189;28;20790;-55
2022/05/13 07:36:08;;;;;;;10.30;3.40;;;;;;;23.61;74.93;98180.31;4980148;28;20104;-55
2022/05/13 07:38:34;;;;;;;8.80;3.40;;;;;;;23.71;74.76;98180.28;4980734;28;20121;-55
2022/05/13 07:41:19;;;;;;;10.02;3.17;;;;;;;23.96;77.82;98174.38;4979856;28;20520;-55
2022/05/13 07:43:45;;;;;;;9.50;3.58;;;;;;;23.77;83.12;98195.72;4980707;28;20400;-55
2022/05/13 07:46:11;;;;;;;10.70;3.38;;;;;;;22.89;86.09;98191.13;4980330;28;20126;-55
2022/05/13 07:48:39;;;;;;;7.90;2.90;;;;;;;23.03;83.44;98192.56;4981378;28;20033;-54
2022/05/13 07:51:04;;;;;;;11.05;3.47;;;;;;;22.64;80.94;98191.59;4978965;28;20039;-55
2022/05/13 07:53:30;;;;;;;9.50;3.40;;;;;;;22.98;80.53;98199.28;4980728;28;20492;-54
2022/05/13 07:55:55;;;;;;;11.00;3.70;;;;;;;22.40;81.81;98194.59;4979217;28;20042;-55
2022/05/13 07:58:21;;;;;;;8.90;3.03;;;;;;;22.16;80.74;98197.50;4981304;28;20096;-55
2022/05/13 08:00:46;;;;;;;9.02;3.25;;;;;;;21.92;78.90;98202.09;4979290;28;20037;-55
2022/05/13 08:03:14;;;;;;;10.23;3.20;;;;;;;21.91;79.27;98194.28;4979965;28;20026;-56
2022/05/13 08:05:43;;;;;;;12.57;3.05;;;;;;;22.21;78.71;98192.66;4979831;28;20052;-55
2022/05/13 08:08:11;;;;;;;11.77;3.40;;;;;;;23.06;75.17;98186.16;4980169;28;20041;-54
2022/05/13 08:10:38;;;;;;;9.93;3.10;;;;;;;23.16;70.98;98181.69;4977899;28;20428;-55
2022/05/13 08:13:04;;;;;;;14.27;3.53;;;;;;;23.31;68.51;98183.97;4979938;28;20057;-55
2022/05/13 08:15:30;;;;;;;9.55;3.22;;;;;;;23.26;68.68;98176.38;4979831;28;20038;-55
2022/05/13 08:17:56;;;;;;;15.00;3.15;;;;;;;24.55;64.68;98174.25;4978402;28;20336;-56
2022/05/13 08:20:22;;;;;;;8.82;2.70;;;;;;;26.36;56.79;98176.78;4993084;28;20423;-55
2022/05/13 08:22:47;;;;;;;11.32;2.80;;;;;;;26.22;54.17;98175.50;4979649;28;20125;-55
2022/05/13 08:25:13;;;;;;;10.25;3.17;;;;;;;27.36;53.27;98168.94;4979120;28;20028;-54
2022/05/13 08:27:38;;;;;;;10.60;2.80;;;;;;;25.50;55.59;98175.63;4980421;28;20432;-54
2022/05/13 08:30:06;;;;;;;11.40;2.80;;;;;;;24.91;54.79;98169.00;4979537;28;20101;-53
2022/05/13 08:32:31;;;;;;;8.55;2.70;;;;;;;25.20;55.25;98179.50;4980060;28;20030;-54
2022/05/13 08:34:57;;;;;;;13.43;2.78;;;;;;;24.90;55.41;98181.50;4980040;28;20030;-54
2022/05/13 08:37:22;;;;;;;10.27;2.70;;;;;;;24.30;57.81;98186.34;4979288;28;20483;-54
2022/05/13 08:39:48;;;;;;;8.20;3.05;;;;;;;23.96;59.09;98189.53;4979600;28;20057;-54
2022/05/13 08:42:35;;;;;;;12.73;2.90;;;;;;;23.83;58.88;98189.84;4979270;28;20398;-54
2022/05/13 08:45:00;;;;;;;11.45;3.10;;;;;;;23.48;60.47;98191.22;4978923;28;20092;-54
2022/05/13 08:47:47;;;;;;;7.80;2.78;;;;;;;23.97;58.02;98186.75;4979442;28;20114;-55
2022/05/13 08:50:20;;;;;;;8.63;2.70;;;;;;;26.10;53.69;98182.13;4978880;28;20555;-54
2022/05/13 08:53:06;;;;;;;7.05;2.70;;;;;;;25.35;54.17;98183.34;4978757;28;20033;-56
2022/05/13 08:55:35;;;;;;;8.02;2.70;;;;;;;26.57;50.34;98172.84;4978515;28;20045;-54
2022/05/13 08:58:04;;;;;;;8.32;2.88;;;;;;;27.08;48.77;98181.78;4978278;28;20115;-54
2022/05/13 09:00:34;;;;;;;7.45;2.92;;;;;;;27.83;46.83;98184.38;4978508;28;20599;-54
2022/05/13 09:03:18;;;;;;;8.43;2.35;;;;;;;27.64;47.81;98179.34;4979301;28;20101;-54
2022/05/13 09:06:22;;;;;;;7.82;2.50;;;;;;;25.50;50.02;98185.47;4978103;28;20250;-55
2022/05/13 09:08:47;;;;;;;7.95;3.15;;;;;;;25.66;49.61;98184.75;4978596;28;20507;-54
2022/05/13 09:11:50;;;;;;;5.85;2.60;;;;;;;26.04;50.32;98188.09;4978173;28;20736;-54
2022/05/13 09:14:31;;;;;;;6.70;2.75;;;;;;;25.05;50.58;98186.31;4979349;28;21103;-55
2022/05/13 09:17:05;;;;;;;7.82;3.05;;;;;;;24.58;51.44;98192.63;4978684;28;20582;-54
2022/05/13 09:19:36;;;;;;;6.32;2.35;;;;;;;24.44;51.98;98197.41;4978150;28;20292;-55
2022/05/13 09:22:04;;;;;;;8.93;3.05;;;;;;;23.79;54.19;98201.75;4978713;28;20097;-54
2022/05/13 09:24:29;;;;;;;8.43;2.88;;;;;;;23.97;53.45;98196.56;4979108;28;20098;-55
2022/05/13 09:26:55;;;;;;;10.00;2.92;;;;;;;25.11;49.33;98186.56;4978511;28;20070;-56
2022/05/13 09:29:20;;;;;;;10.15;3.47;;;;;;;26.58;48.03;98187.91;4978921;28;20034;-54
2022/05/13 09:31:55;;;;;;;8.82;2.80;;;;;;;26.17;47.59;98183.16;4976326;28;20042;-54
2022/05/13 09:34:29;;;;;;;6.35;2.70;;;;;;;26.87;45.50;98187.53;4978112;28;20092;-54
2022/05/13 09:37:23;;;;;;;7.63;2.70;;;;;;;27.81;44.44;98194.44;4978218;28;20041;-55
2022/05/13 09:40:03;;;;;;;9.50;2.97;;;;;;;26.01;47.81;98189.25;4978261;28;20158;-56
2022/05/13 09:42:37;;;;;;;7.20;2.85;;;;;;;27.39;46.07;98184.69;4978219;28;20042;-53
2022/05/13 09:45:28;;;;;;;8.93;2.97;;;;;;;25.49;47.83;98183.78;4978545;28;20064;-54
2022/05/13 09:48:06;;;;;;;7.85;2.78;;;;;;;26.54;46.99;98190.03;4979196;28;20152;-54
2022/05/13 09:50:53;;;;;;;8.93;3.05;;;;;;;26.84;46.49;98191.38;4977803;28;20046;-53
2022/05/13 09:53:21;;;;;;;16.25;3.20;;;;;;;27.34;44.84;98181.69;4979530;28;20494;-54
2022/05/13 09:55:51;;;;;;;12.85;3.25;;;;;;;27.41;45.27;98177.34;4978056;28;20042;-56
2022/05/13 09:58:23;;;;;;;8.80;2.88;;;;;;;27.41;43.27;98171.16;4978416;28;20041;-55
2022/05/13 10:00:52;;;;;;;8.00;2.55;;;;;;;27.09;44.90;98170.03;4977824;28;20042;-54
2022/05/13 10:03:21;;;;;;;9.50;3.08;;;;;;;28.31;42.75;98156.84;4977803;28;20572;-56
2022/05/13 10:06:02;;;;;;;10.48;2.90;;;;;;;28.29;41.24;98159.72;4977873;28;20255;-55
2022/05/13 10:08:28;;;;;;;;;;;;;;;28.36;41.52;98173.25;4977880;28;20034;-54
2022/05/13 10:13:59;;;;;;;7.93;2.83;;;;;;;29.02;41.63;98161.28;4978219;28;20044;-54
2022/05/13 10:16:37;;;;;;;;;;;;;;;29.99;39.87;98158.03;4978166;28;20073;-54
2022/05/13 10:19:28;;;;;;;7.13;2.63;;;;;;;29.54;39.85;98153.56;4977431;28;19920;-54
2022/05/13 10:22:11;;;;;;;9.02;2.83;;;;;;;29.39;38.43;98162.41;4977256;28;20534;-54
2022/05/13 10:25:15;;;;;;;8.23;2.65;;;;;;;29.07;39.16;98159.91;4978448;28;20648;-55
2022/05/13 10:27:48;;;;;;;5.80;2.40;;;;;;;27.91;41.67;98162.13;4976205;28;20189;-54
2022/05/13 10:30:34;;;;;;;8.27;2.90;;;;;;;29.11;40.04;98158.53;4976834;28;20031;-54
2022/05/13 10:33:09;;;;;;;8.00;2.80;;;;;;;29.07;40.81;98147.31;4977897;28;20031;-55
2022/05/13 10:35:49;;;;;;;8.35;3.00;;;;;;;29.02;41.08;98155.91;4977701;28;20088;-55
2022/05/13 10:38:28;;;;;;;7.50;2.72;;;;;;;28.35;40.26;98152.81;4977615;28;20503;-54
2022/05/13 10:40:54;;;;;;;8.30;3.00;;;;;;;28.46;39.75;98155.13;4977111;28;20038;-55
2022/05/13 10:43:46;;;;;;;7.53;2.83;;;;;;;28.69;39.32;98146.34;4977772;28;20287;-54
2022/05/13 10:46:24;;;;;;;9.23;2.67;;;;;;;27.58;39.25;98158.59;4979605;28;20057;-55
2022/05/13 10:48:52;;;;;;;8.05;2.75;;;;;;;27.51;39.31;98136.97;4996445;28;20274;-55
2022/05/13 10:51:53;;;;;;;8.18;2.42;;;;;;;28.20;38.62;98166.09;4980507;28;20050;-54
2022/05/13 10:54:36;;;;;;;10.73;3.08;;;;;;;28.20;38.41;98166.94;4981417;28;20045;-55
2022/05/13 10:57:16;;;;;;;7.35;2.80;;;;;;;27.97;39.11;98165.97;4980279;28;20552;-55
2022/05/13 11:00:00;;;;;;;6.93;2.42;;;;;;;27.93;39.76;98167.31;4981113;28;20022;-55
2022/05/13 11:02:53;;;;;;;10.52;2.47;;;;;;;26.84;39.60;98161.13;4981192;28;20049;-54
2022/05/13 11:05:21;;;;;;;8.20;2.58;;;;;;;29.02;39.11;98161.28;4981278;28;20301;-57
2022/05/13 11:08:04;;;;;;;8.02;2.83;;;;;;;28.07;39.56;98161.28;4981353;28;20109;-54
2022/05/13 11:10:55;;;;;;;8.25;2.75;;;;;;;27.22;40.98;98158.84;4981198;28;20334;-55
2022/05/13 11:13:52;;;;;;;10.27;2.88;;;;;;;27.71;38.43;98161.59;4981214;28;20081;-55
2022/05/13 11:16:26;;;;;;;7.85;2.70;;;;;;;28.42;38.21;98148.44;4980720;28;20042;-54
2022/05/13 11:19:04;;;;;;;6.57;2.35;;;;;;;28.20;37.19;98163.41;4981217;28;20023;-54
2022/05/13 11:21:32;;;;;;;8.48;2.83;;;;;;;27.35;38.60;98166.44;4980199;28;20680;-55
2022/05/13 11:27:14;;;;;;;7.45;2.60;;;;;;;28.19;39.10;98164.41;4980433;28;20193;-54
2022/05/13 11:30:05;;;;;;;7.30;2.50;;;;;;;27.44;38.09;98158.25;4979984;28;20641;-55
2022/05/13 11:32:55;;;;;;;6.85;2.53;;;;;;;27.64;39.01;98171.31;4980337;28;20101;-56
2022/05/13 11:35:41;;;;;;;10.45;2.80;;;;;;;25.16;40.70;98160.28;4980684;28;20086;-54
2022/05/13 11:38:13;;;;;;;8.68;2.80;;;;;;;26.31;40.03;98169.22;4980437;28;20030;-55
2022/05/13 11:40:53;;;;;;;8.73;3.08;;;;;;;26.53;39.65;98158.97;4980342;28;20038;-55
2022/05/13 11:43:52;;;;;;;9.27;2.97;;;;;;;26.40;39.77;98159.41;4980236;28;20657;-53
2022/05/13 11:46:25;;;;;;;6.07;2.55;;;;;;;26.46;39.69;98147.22;4980261;28;20038;-54
2022/05/13 11:49:11;;;;;;;7.72;2.60;;;;;;;26.66;40.68;98148.69;4980128;28;20030;-54
2022/05/13 11:51:38;;;;;;;10.25;3.05;;;;;;;26.28;40.87;98153.50;4979021;28;20157;-55
2022/05/13 11:54:03;;;;;;;9.90;3.03;;;;;;;26.00;40.33;98143.97;4978120;28;20026;-54
2022/05/13 11:56:34;;;;;;;11.05;3.13;;;;;;;25.99;39.89;98142.28;4977314;28;20065;-55
2022/05/13 11:59:09;;;;;;;9.88;2.60;;;;;;;26.52;41.07;98143.91;4979849;28;20551;-56
2022/05/13 12:01:37;;;;;;;11.30;2.63;;;;;;;26.56;40.91;98134.59;4979929;28;20041;-54
2022/05/13 12:04:15;;;;;;;12.63;3.33;;;;;;;26.25;39.85;98137.78;4979885;28;20062;-55